createdAt,value
2019-06-20T00:00:49.073Z,22.27
2019-06-20T00:03:18.671Z,24.17
2019-06-20T00:05:48.165Z,23.47
2019-06-20T00:08:17.792Z,25.00
2019-06-20T00:10:47.422Z,25.57
2019-06-20T00:13:16.890Z,27.03
2019-06-20T00:15:46.319Z,26.43
2019-06-20T00:18:15.792Z,27.40
2019-06-20T00:20:45.306Z,27.17
2019-06-20T00:23:14.786Z,28.23
2019-06-20T00:25:44.205Z,27.50
2019-06-20T00:28:13.738Z,29.10
2019-06-20T00:30:43.168Z,28.87
2019-06-20T00:33:12.626Z,29.63
2019-06-20T00:35:42.049Z,29.13
2019-06-20T00:38:11.518Z,28.27
2019-06-20T00:40:41.023Z,29.93
2019-06-20T00:43:17.550Z,30.63
2019-06-20T00:45:41.616Z,30.33
2019-06-20T00:48:11.081Z,31.20
2019-06-20T00:50:40.522Z,31.50
2019-06-20T00:53:10.067Z,30.47
2019-06-20T00:55:39.633Z,32.83
2019-06-20T00:58:09.176Z,32.63
2019-06-20T01:00:38.692Z,33.07
2019-06-20T01:03:08.324Z,34.97
2019-06-20T01:05:37.755Z,35.10
2019-06-20T01:08:07.288Z,35.77
2019-06-20T01:10:36.753Z,38.97
2019-06-20T01:13:06.268Z,39.63
2019-06-20T01:15:35.788Z,40.30
2019-06-20T01:18:05.261Z,41.87
2019-06-20T01:20:34.992Z,41.83
2019-06-20T01:23:04.599Z,44.33
2019-06-20T01:25:37.259Z,44.80
2019-06-20T01:28:06.872Z,42.37
2019-06-20T01:30:36.325Z,47.00
2019-06-20T01:33:06.632Z,45.30
2019-06-20T01:35:36.160Z,48.87
2019-06-20T01:38:06.062Z,49.83
2019-06-20T01:40:35.529Z,51.33
2019-06-20T01:43:05.061Z,55.63
2019-06-20T01:45:34.586Z,52.57
2019-06-20T01:48:04.127Z,52.33
2019-06-20T01:50:33.589Z,58.70
2019-06-20T01:53:03.058Z,57.60
2019-06-20T01:55:32.516Z,60.83
2019-06-20T01:58:02.041Z,60.00
2019-06-20T02:00:46.772Z,71.03
2019-06-20T02:03:17.072Z,68.60
2019-06-20T02:05:46.593Z,68.50
2019-06-20T02:08:16.318Z,66.63
2019-06-20T02:10:45.879Z,69.90
2019-06-20T02:13:15.485Z,77.97
2019-06-20T02:15:44.982Z,80.13
2019-06-20T02:18:14.515Z,82.77
2019-06-20T02:20:53.027Z,78.73
2019-06-20T02:23:23.020Z,76.13
2019-06-20T02:25:52.526Z,78.77
2019-06-20T02:28:23.123Z,80.40
2019-06-20T02:30:52.764Z,85.07
2019-06-20T02:33:22.292Z,82.20
2019-06-20T02:35:51.789Z,84.10
2019-06-20T02:38:21.240Z,79.17
2019-06-20T02:40:50.738Z,78.60
2019-06-20T02:43:20.299Z,81.03
2019-06-20T02:45:49.793Z,87.23
2019-06-20T02:48:19.335Z,86.43
2019-06-20T02:50:49.491Z,87.90
2019-06-20T02:53:19.007Z,86.43
2019-06-20T02:55:48.434Z,89.73
2019-06-20T02:58:19.170Z,92.37
2019-06-20T03:00:54.496Z,94.40
2019-06-20T03:03:24.616Z,96.53
2019-06-20T03:05:54.046Z,97.03
2019-06-20T03:08:23.661Z,101.60
2019-06-20T03:10:53.224Z,104.23
2019-06-20T03:13:22.791Z,106.33
2019-06-20T03:15:52.220Z,106.77
2019-06-20T03:18:21.707Z,108.53
2019-06-20T03:20:51.141Z,106.93
2019-06-20T03:23:20.620Z,107.67
2019-06-20T03:25:50.129Z,112.37
2019-06-20T03:28:19.696Z,112.33
2019-06-20T03:30:49.190Z,107.60
2019-06-20T03:33:18.689Z,110.67
2019-06-20T03:35:48.179Z,114.63
2019-06-20T03:38:17.650Z,111.13
2019-06-20T03:40:47.090Z,112.17
2019-06-20T03:43:16.602Z,108.73
2019-06-20T03:45:46.064Z,107.80
2019-06-20T03:48:15.522Z,109.77
2019-06-20T03:50:44.966Z,111.70
2019-06-20T03:53:14.447Z,117.53
2019-06-20T03:55:43.873Z,106.97
2019-06-20T03:58:13.429Z,106.53
2019-06-20T04:00:42.879Z,103.43
2019-06-20T04:03:12.469Z,110.17
2019-06-20T04:05:41.979Z,106.87
2019-06-20T04:08:11.516Z,111.97
2019-06-20T04:10:40.953Z,105.13
2019-06-20T04:13:10.427Z,111.00
2019-06-20T04:15:39.875Z,110.87
2019-06-20T04:18:09.345Z,111.80
2019-06-20T04:20:38.774Z,101.47
2019-06-20T04:23:08.259Z,101.80
2019-06-20T04:25:37.689Z,107.20
2019-06-20T04:28:07.150Z,101.17
2019-06-20T04:30:36.579Z,114.10
2019-06-20T04:33:06.219Z,98.10
2019-06-20T04:35:35.646Z,102.63
2019-06-20T04:38:05.983Z,103.00
2019-06-20T04:40:35.439Z,96.13
2019-06-20T04:43:04.890Z,92.17
2019-06-20T04:45:54.261Z,92.43
2019-06-20T04:48:23.724Z,82.90
2019-06-20T04:50:53.181Z,85.80
2019-06-20T04:53:22.769Z,79.83
2019-06-20T04:55:52.414Z,73.60
2019-06-20T04:58:21.925Z,77.70
2019-06-20T05:00:51.446Z,76.80
2019-06-20T05:03:20.905Z,81.27
2019-06-20T05:05:50.438Z,75.40
2019-06-20T05:08:19.876Z,68.17
2019-06-20T05:10:49.421Z,69.53
2019-06-20T05:13:18.921Z,70.83
2019-06-20T05:15:53.029Z,70.03
2019-06-20T05:18:19.536Z,66.37
2019-06-20T05:20:50.783Z,66.17
2019-06-20T05:23:20.437Z,61.87
2019-06-20T05:25:49.894Z,63.57
2019-06-20T05:28:19.365Z,66.33
2019-06-20T05:30:48.835Z,61.40
2019-06-20T05:33:18.299Z,63.07
2019-06-20T05:35:47.821Z,61.43
2019-06-20T05:38:17.293Z,58.07
2019-06-20T05:40:46.752Z,66.40
2019-06-20T05:43:16.519Z,56.60
2019-06-20T05:45:48.815Z,52.80
2019-06-20T05:48:18.584Z,53.07
2019-06-20T05:50:48.599Z,52.70
2019-06-20T05:53:18.144Z,53.43
2019-06-20T05:55:47.618Z,46.40
2019-06-20T05:58:17.222Z,48.43
2019-06-20T06:00:46.762Z,47.87
2019-06-20T06:03:16.298Z,47.77
2019-06-20T06:05:45.757Z,46.23
2019-06-20T06:08:16.397Z,44.00
2019-06-20T06:10:47.026Z,43.37
2019-06-20T06:13:16.642Z,42.07
2019-06-20T06:15:46.106Z,44.80
2019-06-20T06:18:15.556Z,41.43
2019-06-20T06:20:45.259Z,39.33
2019-06-20T06:23:14.864Z,39.27
2019-06-20T06:25:44.436Z,37.27
2019-06-20T06:28:13.911Z,36.93
2019-06-20T06:30:43.361Z,37.37
2019-06-20T06:33:13.175Z,33.50
2019-06-20T06:35:42.595Z,31.10
2019-06-20T06:38:12.068Z,26.20
2019-06-20T06:40:41.544Z,29.17
2019-06-20T06:43:10.989Z,28.67
2019-06-20T06:45:40.782Z,26.77
2019-06-20T06:48:10.248Z,24.00
2019-06-20T06:50:39.758Z,27.60
2019-06-20T06:53:09.223Z,25.67
2019-06-20T06:55:38.659Z,27.90
2019-06-20T06:58:08.124Z,24.70
2019-06-20T07:00:37.632Z,24.60
2019-06-20T07:03:07.301Z,25.13
2019-06-20T07:05:36.748Z,25.90
2019-06-20T07:08:06.175Z,26.93
2019-06-20T07:10:35.626Z,22.60
2019-06-20T07:13:05.220Z,21.97
2019-06-20T07:15:34.748Z,23.60
2019-06-20T07:18:04.452Z,23.80
2019-06-20T07:20:33.896Z,21.33
2019-06-20T07:23:03.412Z,23.73
2019-06-20T07:25:32.873Z,23.33
2019-06-20T07:28:02.290Z,24.93
2019-06-20T07:30:31.828Z,24.93
2019-06-20T07:33:01.244Z,27.20
2019-06-20T07:35:30.723Z,22.40
2019-06-20T07:38:00.140Z,17.43
2019-06-20T07:40:30.316Z,16.83
2019-06-20T07:42:59.738Z,17.23
2019-06-20T07:45:29.274Z,19.10
2019-06-20T07:47:58.707Z,17.87
2019-06-20T07:50:28.176Z,16.80
2019-06-20T07:53:02.652Z,16.20
2019-06-20T07:55:28.773Z,13.67
2019-06-20T07:57:58.177Z,12.73
2019-06-20T08:00:28.200Z,12.67
2019-06-20T08:02:57.629Z,10.43
2019-06-20T08:05:27.088Z,11.83
2019-06-20T08:07:56.550Z,13.13
2019-06-20T08:10:27.209Z,10.20
2019-06-20T08:12:56.663Z,11.63
2019-06-20T08:15:26.248Z,10.73
2019-06-20T08:17:55.713Z,10.67
2019-06-20T08:20:25.504Z,11.70
2019-06-20T08:22:54.965Z,10.60
2019-06-20T08:25:24.552Z,10.87
2019-06-20T08:27:54.064Z,11.83
2019-06-20T08:30:26.670Z,10.77
2019-06-20T08:32:58.130Z,10.13
2019-06-20T08:35:29.824Z,11.07
2019-06-20T08:38:03.480Z,10.30
2019-06-20T08:40:36.287Z,12.73
2019-06-20T08:43:06.409Z,11.43
2019-06-20T08:45:38.377Z,11.93
2019-06-20T08:48:07.988Z,11.13
2019-06-20T08:50:37.763Z,10.93
2019-06-20T08:53:07.392Z,10.00
2019-06-20T08:55:37.056Z,10.50
2019-06-20T08:58:06.860Z,11.63
2019-06-20T09:00:37.920Z,12.03
2019-06-20T09:03:07.640Z,11.23
2019-06-20T09:05:37.108Z,12.20
2019-06-20T09:08:11.242Z,11.47
2019-06-20T09:10:41.244Z,11.53
2019-06-20T09:13:12.547Z,12.03
2019-06-20T09:15:43.121Z,12.97
2019-06-20T09:18:12.730Z,12.27
2019-06-20T09:20:42.466Z,12.70
2019-06-20T09:23:11.997Z,12.20
2019-06-20T09:25:41.756Z,11.80
2019-06-20T09:28:11.330Z,11.33
2019-06-20T09:30:41.060Z,11.70
2019-06-20T09:33:10.521Z,11.90
2019-06-20T09:35:40.044Z,12.13
2019-06-20T09:38:09.817Z,11.60
2019-06-20T09:40:39.454Z,11.43
2019-06-20T09:43:09.094Z,10.73
2019-06-20T09:45:39.000Z,11.30
2019-06-20T09:48:09.388Z,10.60
2019-06-20T09:50:38.909Z,10.57
2019-06-20T09:53:08.362Z,10.97
2019-06-20T09:55:37.996Z,11.43
2019-06-20T09:58:07.601Z,10.90
2019-06-20T10:00:37.879Z,11.00
2019-06-20T10:03:07.325Z,11.30
2019-06-20T10:05:36.906Z,9.83
2019-06-20T10:08:06.563Z,9.97
2019-06-20T10:10:36.723Z,9.97
2019-06-20T10:13:08.010Z,9.47
2019-06-20T10:15:38.257Z,9.37
2019-06-20T10:18:08.446Z,9.03
2019-06-20T10:20:38.974Z,8.57
2019-06-20T10:23:08.918Z,9.10
2019-06-20T10:25:38.916Z,9.10
2019-06-20T10:28:08.467Z,8.93
2019-06-20T10:30:37.981Z,8.90
2019-06-20T10:33:07.481Z,8.83
2019-06-20T10:35:36.908Z,9.27
2019-06-20T10:38:06.363Z,9.60
2019-06-20T10:40:35.873Z,9.20
2019-06-20T10:43:05.787Z,8.63
2019-06-20T10:45:36.390Z,9.50
2019-06-20T10:48:06.345Z,9.33
2019-06-20T10:50:35.879Z,10.00
2019-06-20T10:53:05.492Z,11.07
2019-06-20T10:55:35.005Z,9.47
2019-06-20T10:58:04.882Z,9.67
2019-06-20T11:00:34.362Z,11.00
2019-06-20T11:03:03.975Z,10.60
2019-06-20T11:05:42.067Z,10.93
2019-06-20T11:08:12.906Z,10.40
2019-06-20T11:10:43.595Z,10.43
2019-06-20T11:13:13.728Z,11.00
2019-06-20T11:15:44.077Z,13.07
2019-06-20T11:18:13.622Z,19.10
2019-06-20T11:20:44.351Z,13.43
2019-06-20T11:23:13.983Z,12.83
2019-06-20T11:25:43.697Z,13.37
2019-06-20T11:28:13.152Z,13.83
2019-06-20T11:30:54.069Z,14.17
2019-06-20T11:33:13.924Z,12.47
2019-06-20T11:35:43.566Z,12.40
2019-06-20T11:38:13.060Z,13.10
2019-06-20T11:40:43.823Z,16.00
2019-06-20T11:43:13.488Z,13.73
2019-06-20T11:45:44.167Z,14.20
2019-06-20T11:48:13.777Z,13.50
2019-06-20T11:50:43.238Z,12.97
2019-06-20T11:53:12.727Z,13.13
2019-06-20T11:55:42.742Z,13.57
2019-06-20T11:58:12.207Z,13.63
2019-06-20T12:00:41.747Z,11.37
2019-06-20T12:03:11.233Z,12.90
2019-06-20T12:05:41.866Z,11.70
2019-06-20T12:08:11.833Z,11.13
2019-06-20T12:10:43.067Z,11.20
2019-06-20T12:13:12.573Z,9.73
2019-06-20T12:15:42.830Z,10.73
2019-06-20T12:18:12.467Z,10.37
2019-06-20T12:20:42.893Z,10.37
2019-06-20T12:23:12.444Z,11.03
2019-06-20T12:25:42.716Z,10.03
2019-06-20T12:28:12.265Z,8.70
2019-06-20T12:30:41.708Z,10.63
2019-06-20T12:33:12.696Z,9.63
2019-06-20T12:35:42.791Z,13.03
2019-06-20T12:38:15.118Z,13.20
2019-06-20T12:40:44.089Z,14.73
2019-06-20T12:43:13.600Z,13.07
2019-06-20T12:45:43.973Z,14.60
2019-06-20T12:48:13.443Z,15.90
2019-06-20T12:50:43.073Z,18.90
2019-06-20T12:53:12.592Z,18.57
2019-06-20T12:55:42.472Z,14.93
2019-06-20T12:58:12.146Z,13.27
2019-06-20T13:00:43.613Z,13.13
2019-06-20T13:03:12.885Z,13.43
2019-06-20T13:05:43.263Z,9.87
2019-06-20T13:08:13.700Z,10.43
2019-06-20T13:10:44.191Z,9.87
2019-06-20T13:13:13.807Z,7.57
2019-06-20T13:15:44.502Z,8.20
2019-06-20T13:18:14.052Z,9.47
2019-06-20T13:20:44.260Z,10.27
2019-06-20T13:23:13.791Z,11.57
2019-06-20T13:25:44.585Z,9.17
2019-06-20T13:28:14.102Z,9.43
2019-06-20T13:30:47.279Z,9.40
2019-06-20T13:33:14.719Z,9.10
2019-06-20T13:35:45.385Z,9.23
2019-06-20T13:38:14.866Z,8.13
2019-06-20T13:40:45.375Z,9.17
2019-06-20T13:43:14.942Z,9.87
2019-06-20T13:45:44.754Z,7.60
2019-06-20T13:48:14.371Z,6.90
2019-06-20T13:50:45.238Z,6.80
2019-06-20T13:53:14.840Z,8.00
2019-06-20T13:55:45.734Z,7.80
2019-06-20T13:58:15.281Z,6.73
2019-06-20T14:00:45.437Z,5.87
2019-06-20T14:03:15.079Z,6.43
2019-06-20T14:05:45.385Z,6.77
2019-06-20T14:08:15.084Z,7.57
2019-06-20T14:10:46.001Z,5.57
2019-06-20T14:13:19.418Z,6.00
2019-06-20T14:15:48.451Z,5.90
2019-06-20T14:18:18.031Z,6.73
2019-06-20T14:20:48.528Z,6.60
2019-06-20T14:23:18.092Z,6.30
2019-06-20T14:25:48.796Z,6.20
2019-06-20T14:28:18.338Z,6.93
2019-06-20T14:30:48.301Z,7.13
2019-06-20T14:33:17.924Z,6.70
2019-06-20T14:35:47.896Z,6.20
2019-06-20T14:38:20.135Z,6.50
2019-06-20T14:40:49.947Z,6.13
2019-06-20T14:43:19.421Z,6.70
2019-06-20T14:45:50.650Z,7.40
2019-06-20T14:48:21.027Z,7.73
2019-06-20T14:50:51.349Z,7.63
2019-06-20T14:53:20.778Z,7.27
2019-06-20T14:55:51.620Z,6.83
2019-06-20T14:58:21.200Z,7.50
2019-06-20T15:00:51.853Z,7.17
2019-06-20T15:03:21.547Z,6.93
2019-06-20T15:05:52.461Z,7.20
2019-06-20T15:08:22.942Z,7.03
2019-06-20T15:10:52.389Z,8.83
2019-06-20T15:13:21.852Z,6.77
2019-06-20T15:15:51.367Z,6.00
2019-06-20T15:18:20.893Z,6.87
2019-06-20T15:20:51.880Z,6.87
2019-06-20T15:23:21.672Z,6.43
2019-06-20T15:25:52.143Z,6.43
2019-06-20T15:28:21.715Z,7.13
2019-06-20T15:30:52.585Z,6.67
2019-06-20T15:33:22.221Z,5.53
2019-06-20T15:35:53.424Z,4.70
2019-06-20T15:38:22.930Z,5.37
2019-06-20T15:40:53.381Z,5.97
2019-06-20T15:43:23.006Z,5.93
2019-06-20T15:45:53.739Z,5.33
2019-06-20T15:48:23.385Z,5.40
2019-06-20T15:50:52.798Z,5.57
2019-06-20T15:53:23.731Z,5.27
2019-06-20T15:55:53.244Z,4.17
2019-06-20T15:58:22.692Z,4.93
2019-06-20T16:00:52.121Z,4.70
2019-06-20T16:03:21.583Z,5.20
2019-06-20T16:05:51.010Z,4.47
2019-06-20T16:08:20.530Z,4.37
2019-06-20T16:10:49.934Z,4.00
2019-06-20T16:13:19.450Z,3.83
2019-06-20T16:15:48.977Z,4.23
2019-06-20T16:18:18.420Z,3.53
2019-06-20T16:20:47.827Z,3.00
2019-06-20T16:23:17.295Z,4.37
2019-06-20T16:25:46.713Z,4.67
2019-06-20T16:28:16.163Z,2.70
2019-06-20T16:30:45.659Z,4.23
2019-06-20T16:33:24.665Z,4.50
2019-06-20T16:35:46.247Z,4.37
2019-06-20T16:38:15.714Z,3.20
2019-06-20T16:40:47.172Z,3.10
2019-06-20T16:43:18.272Z,2.60
2019-06-20T16:45:47.830Z,3.00
2019-06-20T16:48:17.342Z,4.13
2019-06-20T16:50:46.793Z,3.53
2019-06-20T16:53:16.317Z,4.87
2019-06-20T16:55:45.851Z,4.40
2019-06-20T16:58:15.268Z,3.23
2019-06-20T17:00:46.432Z,2.97
2019-06-20T17:03:15.871Z,3.17
2019-06-20T17:05:45.463Z,4.30
2019-06-20T17:08:14.911Z,3.33
2019-06-20T17:10:44.494Z,3.77
2019-06-20T17:13:13.970Z,4.23
2019-06-20T17:15:43.452Z,2.60
2019-06-20T17:18:12.921Z,2.77
2019-06-20T17:20:42.445Z,2.73
2019-06-20T17:23:11.893Z,3.50
2019-06-20T17:25:42.203Z,3.20
2019-06-20T17:28:11.792Z,3.30
2019-06-20T17:30:41.241Z,4.77
2019-06-20T17:33:10.705Z,2.70
2019-06-20T17:35:40.360Z,2.97
2019-06-20T17:38:09.832Z,4.03
2019-06-20T17:40:39.356Z,3.97
2019-06-20T17:43:08.822Z,3.70
2019-06-20T17:45:39.939Z,3.57
2019-06-20T17:48:09.397Z,3.17
2019-06-20T17:50:39.569Z,3.47
2019-06-20T17:53:10.534Z,2.97
2019-06-20T17:55:39.993Z,3.20
2019-06-20T17:58:09.428Z,3.47
2019-06-20T18:00:39.180Z,2.80
2019-06-20T18:03:08.617Z,4.10
2019-06-20T18:05:38.135Z,2.83
2019-06-20T18:08:15.052Z,3.00
2019-06-20T18:10:40.367Z,2.60
2019-06-20T18:13:09.829Z,2.87
2019-06-20T18:15:39.340Z,2.77
2019-06-20T18:18:08.786Z,5.50
2019-06-20T18:20:38.313Z,3.10
2019-06-20T18:23:07.769Z,3.30
2019-06-20T18:25:37.240Z,3.57
2019-06-20T18:28:06.791Z,3.50
2019-06-20T18:30:39.251Z,4.67
2019-06-20T18:33:08.780Z,3.57
2019-06-20T18:35:38.455Z,4.27
2019-06-20T18:38:08.000Z,4.13
2019-06-20T18:40:37.514Z,4.50
2019-06-20T18:43:06.987Z,4.73
2019-06-20T18:45:36.476Z,4.23
2019-06-20T18:48:06.078Z,4.00
2019-06-20T18:50:35.514Z,4.73
2019-06-20T18:53:05.375Z,3.83
2019-06-20T18:55:34.785Z,4.37
2019-06-20T18:58:04.232Z,4.57
2019-06-20T19:00:35.282Z,4.87
2019-06-20T19:03:05.586Z,5.20
2019-06-20T19:05:35.006Z,5.77
2019-06-20T19:08:04.596Z,5.27
2019-06-20T19:10:34.079Z,7.17
2019-06-20T19:13:03.821Z,5.93
2019-06-20T19:15:33.643Z,5.37
2019-06-20T19:18:03.182Z,7.07
2019-06-20T19:20:32.595Z,6.57
2019-06-20T19:23:02.057Z,5.87
2019-06-20T19:25:31.465Z,5.20
2019-06-20T19:28:00.903Z,5.53
2019-06-20T19:30:44.054Z,7.93
2019-06-20T19:33:13.476Z,5.10
2019-06-20T19:35:42.994Z,5.33
2019-06-20T19:38:12.557Z,4.87
2019-06-20T19:40:44.924Z,5.97
2019-06-20T19:43:14.399Z,7.57
2019-06-20T19:45:44.482Z,5.87
2019-06-20T19:48:14.648Z,6.27
2019-06-20T19:50:44.721Z,7.30
2019-06-20T19:53:14.280Z,9.83
2019-06-20T19:55:44.069Z,6.30
2019-06-20T19:58:13.483Z,6.93
2019-06-20T20:00:43.194Z,6.10
2019-06-20T20:03:12.780Z,5.83
2019-06-20T20:05:42.633Z,5.83
2019-06-20T20:08:12.162Z,6.10
2019-06-20T20:10:49.215Z,8.17
2019-06-20T20:13:18.900Z,6.80
2019-06-20T20:15:48.588Z,7.37
2019-06-20T20:18:18.527Z,7.10
2019-06-20T20:20:48.606Z,7.10
2019-06-20T20:23:18.148Z,8.70
2019-06-20T20:25:47.717Z,8.43
2019-06-20T20:28:17.182Z,7.90
2019-06-20T20:30:46.691Z,8.83
2019-06-20T20:33:16.143Z,8.20
2019-06-20T20:35:45.961Z,8.70
2019-06-20T20:38:15.443Z,8.60
2019-06-20T20:40:45.570Z,10.30
2019-06-20T20:43:14.984Z,9.73
2019-06-20T20:45:44.523Z,10.07
2019-06-20T20:48:14.019Z,9.87
2019-06-20T20:50:43.753Z,10.60
2019-06-20T20:53:13.159Z,9.07
2019-06-20T20:55:42.773Z,10.10
2019-06-20T20:58:12.183Z,11.83
2019-06-20T21:00:47.337Z,10.83
2019-06-20T21:03:16.779Z,10.70
2019-06-20T21:05:51.519Z,12.20
2019-06-20T21:08:17.375Z,11.60
2019-06-20T21:10:47.423Z,11.67
2019-06-20T21:13:16.802Z,11.47
2019-06-20T21:15:46.348Z,13.23
2019-06-20T21:18:15.777Z,13.40
2019-06-20T21:20:45.226Z,12.00
2019-06-20T21:23:14.658Z,12.33
2019-06-20T21:25:44.126Z,12.33
2019-06-20T21:28:13.553Z,12.83
2019-06-20T21:30:43.155Z,12.13
2019-06-20T21:33:12.571Z,14.40
2019-06-20T21:35:42.093Z,12.47
2019-06-20T21:38:11.529Z,14.27
2019-06-20T21:40:40.985Z,13.60
2019-06-20T21:43:10.408Z,14.87
2019-06-20T21:45:39.853Z,17.80
2019-06-20T21:48:09.343Z,16.33
2019-06-20T21:50:38.960Z,15.53
2019-06-20T21:53:08.455Z,16.77
2019-06-20T21:55:37.907Z,15.50
2019-06-20T21:58:07.413Z,16.60
2019-06-20T22:00:41.562Z,19.00
2019-06-20T22:03:11.419Z,15.23
2019-06-20T22:05:41.020Z,15.40
2019-06-20T22:08:10.609Z,16.07
2019-06-20T22:10:40.063Z,15.80
2019-06-20T22:13:09.564Z,15.27
2019-06-20T22:15:39.132Z,16.00
2019-06-20T22:18:08.625Z,15.63
2019-06-20T22:20:38.212Z,16.70
2019-06-20T22:23:07.640Z,17.90
2019-06-20T22:25:37.162Z,18.40
2019-06-20T22:28:06.653Z,20.83
2019-06-20T22:30:48.248Z,20.07
2019-06-20T22:33:17.714Z,18.90
2019-06-20T22:35:47.263Z,20.40
2019-06-20T22:38:16.809Z,22.03
2019-06-20T22:40:46.747Z,22.07
2019-06-20T22:43:16.555Z,21.13
2019-06-20T22:45:46.455Z,21.40
2019-06-20T22:48:15.978Z,20.00
2019-06-20T22:50:45.814Z,19.70
2019-06-20T22:53:15.308Z,20.93
2019-06-20T22:55:45.360Z,21.67
2019-06-20T22:58:14.818Z,20.10
2019-06-20T23:00:44.847Z,19.93
2019-06-20T23:03:14.307Z,20.53
2019-06-20T23:05:43.762Z,20.13
2019-06-20T23:08:13.349Z,23.60
2019-06-20T23:10:42.817Z,20.43
2019-06-20T23:13:12.580Z,23.03
2019-06-20T23:15:42.055Z,24.70
2019-06-20T23:18:11.580Z,24.63
2019-06-20T23:20:41.579Z,28.70
2019-06-20T23:23:11.040Z,26.73
2019-06-20T23:25:42.214Z,24.60
2019-06-20T23:28:11.793Z,31.93
2019-06-20T23:30:41.603Z,27.17
2019-06-20T23:33:11.235Z,30.93
2019-06-20T23:35:40.690Z,28.23
2019-06-20T23:38:10.153Z,29.50
2019-06-20T23:40:39.609Z,28.23
2019-06-20T23:43:09.073Z,32.37
2019-06-20T23:45:40.156Z,32.80
2019-06-20T23:48:09.655Z,32.87
2019-06-20T23:50:39.067Z,31.73
2019-06-20T23:53:15.927Z,31.03
2019-06-20T23:55:45.466Z,30.03
2019-06-20T23:58:15.052Z,27.83
